Time;durP1;ratioP1;P1;durP2;ratioP2;P2;SDS_P1;SDS_P2;PMS_P1;PMS_P2;Temp;Humidity;BMP_temperature;BMP_pressure;BME280_temperature;BME280_humidity;BME280_pressure;Samples;Min_cycle;Max_cycle;Signal;HPM_P1;HPM_P2
2021/06/04 00:01:14;;;;;;;4.55;3.20;;;;;;;;;;5054657;28;20143;-74
2021/06/04 00:03:40;;;;;;;4.80;3.20;;;;;;;;;;5051300;28;20494;-74
2021/06/04 00:06:06;;;;;;;5.28;3.50;;;;;;;;;;5051955;28;20086;-74
2021/06/04 00:08:32;;;;;;;3.95;2.90;;;;;;;;;;5066127;28;20043;-74
2021/06/04 00:11:03;;;;;;;4.63;3.08;;;;;;;;;;5070839;28;20040;-74
2021/06/04 00:13:32;;;;;;;6.25;3.33;;;;;;;;;;5071023;28;20040;-74
2021/06/04 00:16:01;;;;;;;5.93;3.63;;;;;;;;;;5075501;28;20056;-75
2021/06/04 00:18:27;;;;;;;5.43;3.83;;;;;;;;;;5070576;28;20600;-75
2021/06/04 00:20:52;;;;;;;6.13;3.90;;;;;;;;;;5070987;28;20036;-74
2021/06/04 00:23:17;;;;;;;5.03;3.60;;;;;;;;;;5063667;28;20029;-73
2021/06/04 00:25:42;;;;;;;5.55;3.80;;;;;;;;;;5065005;28;20024;-74
2021/06/04 00:28:08;;;;;;;5.68;3.45;;;;;;;;;;5058304;28;20028;-75
2021/06/04 00:30:33;;;;;;;7.57;3.85;;;;;;;;;;5064523;28;20107;-74
2021/06/04 00:32:58;;;;;;;7.80;3.50;;;;;;;;;;5070061;28;20048;-74
2021/06/04 00:35:24;;;;;;;4.15;3.08;;;;;;;;;;5070901;28;20028;-74
2021/06/04 00:37:49;;;;;;;5.35;3.13;;;;;;;;;;5065144;28;20038;-74
2021/06/04 00:40:19;;;;;;;4.13;2.90;;;;;;;;;;5068905;28;20028;-74
2021/06/04 00:42:45;;;;;;;6.85;3.28;;;;;;;;;;5070675;28;20041;-74
2021/06/04 00:45:12;;;;;;;3.95;2.80;;;;;;;;;;5070092;28;20052;-74
2021/06/04 00:47:38;;;;;;;4.43;2.70;;;;;;;;;;5059185;28;20463;-73
2021/06/04 00:50:07;;;;;;;5.50;3.10;;;;;;;;;;5051216;28;20062;-74
2021/06/04 00:52:34;;;;;;;3.47;2.95;;;;;;;;;;5050614;28;20060;-73
2021/06/04 00:54:59;;;;;;;5.85;3.45;;;;;;;;;;5050845;28;20029;-74
2021/06/04 00:57:26;;;;;;;4.18;3.10;;;;;;;;;;5060733;28;20165;-74
2021/06/04 01:00:00;;;;;;;4.05;2.97;;;;;;;;;;5059962;28;20028;-74
2021/06/04 01:02:25;;;;;;;4.40;3.00;;;;;;;;;;5037573;28;20021;-74
2021/06/04 01:04:50;;;;;;;4.20;3.40;;;;;;;;;;5059866;28;20028;-74
2021/06/04 01:07:19;;;;;;;7.28;3.83;;;;;;;;;;5032496;28;20013;-75
2021/06/04 01:09:47;;;;;;;6.87;3.20;;;;;;;;;;5054617;28;20013;-74
2021/06/04 01:12:18;;;;;;;4.38;3.30;;;;;;;;;;5059431;28;20255;-74
2021/06/04 01:14:59;;;;;;;5.47;3.15;;;;;;;;;;5067599;28;20128;-74
2021/06/04 01:17:32;;;;;;;4.85;3.22;;;;;;;;;;5063019;28;20103;-73
2021/06/04 01:20:13;;;;;;;5.43;3.50;;;;;;;;;;5044336;28;20235;-75
2021/06/04 01:22:50;;;;;;;5.07;3.10;;;;;;;;;;5045619;28;20471;-74
2021/06/04 01:25:34;;;;;;;4.47;3.28;;;;;;;;;;5065908;28;20756;-75
2021/06/04 01:28:00;;;;;;;4.28;3.47;;;;;;;;;;5058987;28;20031;-75
2021/06/04 01:30:28;;;;;;;6.35;3.17;;;;;;;;;;5061069;28;20016;-73
2021/06/04 01:32:55;;;;;;;5.00;3.10;;;;;;;;;;5069474;28;20041;-73
2021/06/04 01:35:48;;;;;;;5.30;3.50;;;;;;;;;;5069335;28;20016;-73
2021/06/04 01:38:15;;;;;;;5.47;3.80;;;;;;;;;;5058605;28;20029;-73
2021/06/04 01:40:42;;;;;;;5.13;3.38;;;;;;;;;;5051023;28;20116;-74
2021/06/04 01:43:13;;;;;;;6.10;3.90;;;;;;;;;;5057295;28;20027;-74
2021/06/04 01:45:40;;;;;;;5.07;3.40;;;;;;;;;;5057734;28;20412;-73
2021/06/04 01:48:11;;;;;;;5.45;3.40;;;;;;;;;;5068161;28;20485;-74
2021/06/04 01:50:39;;;;;;;6.15;3.95;;;;;;;;;;5050179;28;20021;-74
2021/06/04 01:53:08;;;;;;;7.65;4.22;;;;;;;;;;5049486;28;20029;-75
2021/06/04 01:55:35;;;;;;;5.83;4.43;;;;;;;;;;5051539;28;20334;-74
2021/06/04 01:58:08;;;;;;;6.65;4.60;;;;;;;;;;5068946;28;20035;-74
2021/06/04 02:00:59;;;;;;;6.18;4.50;;;;;;;;;;5059945;28;20048;-73
2021/06/04 02:03:25;;;;;;;6.40;3.97;;;;;;;;;;4967436;28;20166;-73
2021/06/04 02:05:52;;;;;;;6.18;3.95;;;;;;;;;;4982741;28;20034;-74
2021/06/04 02:08:21;;;;;;;6.85;3.90;;;;;;;;;;4967700;28;20031;-72
2021/06/04 02:10:48;;;;;;;6.15;3.75;;;;;;;;;;4967845;28;20037;-73
2021/06/04 02:13:13;;;;;;;6.72;4.15;;;;;;;;;;4967838;28;20034;-73
2021/06/04 02:15:41;;;;;;;5.03;3.97;;;;;;;;;;4967493;28;20540;-73
2021/06/04 02:18:06;;;;;;;5.95;3.70;;;;;;;;;;4951327;28;20467;-75
2021/06/04 02:20:34;;;;;;;6.77;4.33;;;;;;;;;;4968040;28;20129;-73
2021/06/04 02:22:59;;;;;;;6.13;4.20;;;;;;;;;;4967876;28;20338;-74
2021/06/04 02:25:43;;;;;;;5.82;4.07;;;;;;;;;;4967208;28;20102;-73
2021/06/04 02:28:13;;;;;;;8.10;4.00;;;;;;;;;;4967780;28;20038;-73
2021/06/04 02:30:42;;;;;;;5.97;4.00;;;;;;;;;;4967916;28;20246;-74
2021/06/04 02:33:09;;;;;;;8.32;4.47;;;;;;;;;;4975052;28;20051;-74
2021/06/04 02:35:36;;;;;;;6.55;3.95;;;;;;;;;;4971666;28;20100;-74
2021/06/04 02:38:20;;;;;;;6.45;3.90;;;;;;;;;;4967336;28;20500;-74
2021/06/04 02:40:48;;;;;;;4.93;3.97;;;;;;;;;;5020263;28;20107;-73
2021/06/04 02:43:25;;;;;;;6.03;4.18;;;;;;;;;;5049273;28;20052;-74
2021/06/04 02:45:55;;;;;;;6.18;4.20;;;;;;;;;;5065175;28;20021;-74
2021/06/04 02:48:21;;;;;;;4.53;3.97;;;;;;;;;;5052108;28;20110;-74
2021/06/04 02:50:48;;;;;;;5.00;4.05;;;;;;;;;;5055632;28;20048;-74
2021/06/04 02:53:17;;;;;;;6.13;3.78;;;;;;;;;;5049325;28;20383;-75
2021/06/04 02:56:12;;;;;;;5.20;3.63;;;;;;;;;;5064450;28;20033;-74
2021/06/04 02:58:38;;;;;;;5.20;3.95;;;;;;;;;;4980222;28;20031;-73
2021/06/04 03:01:05;;;;;;;5.03;3.50;;;;;;;;;;4980293;28;20112;-74
2021/06/04 03:03:30;;;;;;;5.40;3.53;;;;;;;;;;4967869;28;20041;-74
2021/06/04 03:05:56;;;;;;;6.28;3.80;;;;;;;;;;4973579;28;20022;-73
2021/06/04 03:08:22;;;;;;;4.57;3.70;;;;;;;;;;4986211;28;20109;-74
2021/06/04 03:10:49;;;;;;;5.05;3.70;;;;;;;;;;4976588;28;20029;-73
2021/06/04 03:13:16;;;;;;;8.48;4.28;;;;;;;;;;4970911;28;20034;-74
2021/06/04 03:15:46;;;;;;;5.07;3.50;;;;;;;;;;4978726;28;20039;-74
2021/06/04 03:18:12;;;;;;;5.63;3.58;;;;;;;;;;4979572;28;20525;-74
2021/06/04 03:20:39;;;;;;;4.95;4.03;;;;;;;;;;4981698;28;20062;-75
2021/06/04 03:23:05;;;;;;;6.50;3.60;;;;;;;;;;4967880;28;20041;-74
2021/06/04 03:25:32;;;;;;;5.97;3.80;;;;;;;;;;4983646;28;20054;-75
2021/06/04 03:27:59;;;;;;;6.15;3.53;;;;;;;;;;4982275;28;20027;-75
2021/06/04 03:30:25;;;;;;;4.95;3.58;;;;;;;;;;4980188;28;20429;-75
2021/06/04 03:32:51;;;;;;;5.15;3.78;;;;;;;;;;4967061;28;20122;-73
2021/06/04 03:35:16;;;;;;;4.20;3.80;;;;;;;;;;5019299;28;20527;-74
2021/06/04 03:37:41;;;;;;;6.65;4.32;;;;;;;;;;5060078;28;20032;-73
2021/06/04 03:40:08;;;;;;;4.90;4.15;;;;;;;;;;5068439;28;20511;-73
2021/06/04 03:42:33;;;;;;;5.22;3.80;;;;;;;;;;5064903;28;20112;-73
2021/06/04 03:44:59;;;;;;;5.65;3.88;;;;;;;;;;5065690;28;20427;-75
2021/06/04 03:47:24;;;;;;;6.43;3.78;;;;;;;;;;5071329;28;20024;-75
2021/06/04 03:49:49;;;;;;;5.68;4.10;;;;;;;;;;5057887;28;20116;-74
2021/06/04 03:52:16;;;;;;;5.22;4.03;;;;;;;;;;5052007;28;20083;-76
2021/06/04 03:54:43;;;;;;;5.28;4.28;;;;;;;;;;5059061;28;20387;-75
2021/06/04 03:57:11;;;;;;;6.03;4.50;;;;;;;;;;5052747;28;20116;-74
2021/06/04 03:59:37;;;;;;;4.90;3.90;;;;;;;;;;5063818;28;20083;-73
2021/06/04 04:02:04;;;;;;;5.15;4.07;;;;;;;;;;5051911;28;20415;-74
2021/06/04 04:04:30;;;;;;;5.82;4.50;;;;;;;;;;5058113;28;20035;-74
2021/06/04 04:06:55;;;;;;;6.63;4.45;;;;;;;;;;5052213;28;20025;-74
2021/06/04 04:09:21;;;;;;;6.75;4.55;;;;;;;;;;5071171;28;20379;-74
2021/06/04 04:11:47;;;;;;;6.25;4.60;;;;;;;;;;5052114;28;20102;-73
2021/06/04 04:14:13;;;;;;;8.43;4.18;;;;;;;;;;5051904;28;20103;-74
2021/06/04 04:16:38;;;;;;;6.45;4.63;;;;;;;;;;5070582;28;20024;-75
2021/06/04 04:19:04;;;;;;;6.72;4.65;;;;;;;;;;5071188;28;20372;-74
2021/06/04 04:21:29;;;;;;;9.32;4.38;;;;;;;;;;5052902;28;20087;-75
2021/06/04 04:23:56;;;;;;;5.18;4.10;;;;;;;;;;5061876;28;20052;-74
2021/06/04 04:26:23;;;;;;;5.68;4.13;;;;;;;;;;5051755;28;20039;-74
2021/06/04 04:28:49;;;;;;;6.43;4.57;;;;;;;;;;5052312;28;20071;-74
2021/06/04 04:31:16;;;;;;;8.40;4.43;;;;;;;;;;5054755;28;20096;-73
2021/06/04 04:33:42;;;;;;;6.22;3.97;;;;;;;;;;5070365;28;20045;-73
2021/06/04 04:36:08;;;;;;;7.15;4.28;;;;;;;;;;5068289;28;20025;-74
2021/06/04 04:38:34;;;;;;;5.20;4.22;;;;;;;;;;5064812;28;20192;-76
2021/06/04 04:41:01;;;;;;;6.07;4.35;;;;;;;;;;5054061;28;20032;-74
2021/06/04 04:43:27;;;;;;;5.18;4.40;;;;;;;;;;5073680;28;20032;-73
2021/06/04 04:45:53;;;;;;;8.50;4.03;;;;;;;;;;5071138;28;20433;-74
2021/06/04 04:48:18;;;;;;;6.18;4.35;;;;;;;;;;5069983;28;20027;-74
2021/06/04 04:50:43;;;;;;;8.23;5.18;;;;;;;;;;5070154;28;20032;-73
2021/06/04 04:53:08;;;;;;;6.38;4.38;;;;;;;;;;5062990;28;20436;-74
2021/06/04 04:55:35;;;;;;;6.65;4.78;;;;;;;;;;5058476;28;20028;-75
2021/06/04 04:58:00;;;;;;;9.05;4.95;;;;;;;;;;5045713;28;20112;-74
2021/06/04 05:00:27;;;;;;;6.43;3.80;;;;;;;;;;5057616;28;20132;-74
2021/06/04 05:02:53;;;;;;;7.68;4.72;;;;;;;;;;5070648;28;20482;-75
2021/06/04 05:05:19;;;;;;;6.35;4.20;;;;;;;;;;5070227;28;20024;-74
2021/06/04 05:07:44;;;;;;;7.05;4.18;;;;;;;;;;5070817;28;20414;-74
2021/06/04 05:10:10;;;;;;;5.57;4.50;;;;;;;;;;5057970;28;20087;-74
2021/06/04 05:12:36;;;;;;;6.88;4.47;;;;;;;;;;5062654;28;20016;-74
2021/06/04 05:15:02;;;;;;;5.65;3.95;;;;;;;;;;5070237;28;20024;-74
2021/06/04 05:17:28;;;;;;;8.13;4.40;;;;;;;;;;5058891;28;20445;-74
2021/06/04 05:19:53;;;;;;;8.10;4.60;;;;;;;;;;5068344;28;20028;-74
2021/06/04 05:22:18;;;;;;;7.03;4.53;;;;;;;;;;5058898;28;20025;-75
2021/06/04 05:24:44;;;;;;;5.90;4.38;;;;;;;;;;5050905;28;20095;-75
2021/06/04 05:27:10;;;;;;;7.95;4.53;;;;;;;;;;5050825;28;20099;-74
2021/06/04 05:29:35;;;;;;;6.00;4.80;;;;;;;;;;5050716;28;20103;-73
2021/06/04 05:32:00;;;;;;;6.35;4.60;;;;;;;;;;5056639;28;20029;-74
2021/06/04 05:34:25;;;;;;;6.75;4.57;;;;;;;;;;5067370;28;20048;-73
2021/06/04 05:36:51;;;;;;;8.45;4.50;;;;;;;;;;5052633;28;20482;-74
2021/06/04 05:39:18;;;;;;;7.75;4.70;;;;;;;;;;5067897;28;20494;-74
2021/06/04 05:41:45;;;;;;;5.80;4.60;;;;;;;;;;5051432;28;20028;-75
2021/06/04 05:44:14;;;;;;;5.32;4.55;;;;;;;;;;5070100;28;20025;-75
2021/06/04 05:46:42;;;;;;;5.70;4.85;;;;;;;;;;5061615;28;20025;-74
2021/06/04 05:49:08;;;;;;;7.15;4.70;;;;;;;;;;5058326;28;20553;-73
2021/06/04 05:51:33;;;;;;;6.78;4.53;;;;;;;;;;5069252;28;20036;-74
2021/06/04 05:53:58;;;;;;;6.80;4.50;;;;;;;;;;5062883;28;20020;-73
2021/06/04 05:56:25;;;;;;;5.25;3.88;;;;;;;;;;5069556;28;20020;-73
2021/06/04 05:58:51;;;;;;;6.13;4.05;;;;;;;;;;5056522;28;20017;-74
2021/06/04 06:01:22;;;;;;;6.63;4.60;;;;;;;;;;5062993;28;20029;-74
2021/06/04 06:03:47;;;;;;;7.40;4.32;;;;;;;;;;5055776;28;20021;-73
2021/06/04 06:06:13;;;;;;;6.65;4.72;;;;;;;;;;5063293;28;20023;-73
2021/06/04 06:08:40;;;;;;;6.68;4.90;;;;;;;;;;5056336;28;20028;-73
2021/06/04 06:11:05;;;;;;;7.22;4.43;;;;;;;;;;5063010;28;20021;-73
2021/06/04 06:13:30;;;;;;;6.60;4.57;;;;;;;;;;5057385;28;20040;-74
2021/06/04 06:15:56;;;;;;;7.03;4.70;;;;;;;;;;5069098;28;20375;-75
2021/06/04 06:18:22;;;;;;;6.00;4.50;;;;;;;;;;5055578;28;20052;-74
2021/06/04 06:20:47;;;;;;;6.32;4.38;;;;;;;;;;5068203;28;20047;-73
2021/06/04 06:23:14;;;;;;;7.35;4.57;;;;;;;;;;5054285;28;20037;-73
2021/06/04 06:25:41;;;;;;;7.18;4.60;;;;;;;;;;5067110;28;20460;-73
2021/06/04 06:28:08;;;;;;;6.28;4.45;;;;;;;;;;5069074;28;20082;-73
2021/06/04 06:30:33;;;;;;;6.63;4.40;;;;;;;;;;5051310;28;20349;-73
2021/06/04 06:32:59;;;;;;;5.35;3.80;;;;;;;;;;5053351;28;20051;-73
2021/06/04 06:35:26;;;;;;;6.03;4.22;;;;;;;;;;5052277;28;20514;-73
2021/06/04 06:37:51;;;;;;;7.05;4.47;;;;;;;;;;5049626;28;20412;-73
2021/06/04 06:40:17;;;;;;;7.05;4.00;;;;;;;;;;5046949;28;20025;-73
2021/06/04 06:42:42;;;;;;;5.35;4.00;;;;;;;;;;5055149;28;20113;-73
2021/06/04 06:45:09;;;;;;;5.22;4.10;;;;;;;;;;5067975;28;20025;-74
2021/06/04 06:47:34;;;;;;;7.78;4.25;;;;;;;;;;5067992;28;20039;-74
2021/06/04 06:50:00;;;;;;;6.88;4.40;;;;;;;;;;5068874;28;20016;-73
2021/06/04 06:52:25;;;;;;;8.40;4.05;;;;;;;;;;5060567;28;20494;-74
2021/06/04 06:54:50;;;;;;;5.35;3.50;;;;;;;;;;5055714;28;20237;-74
2021/06/04 06:57:16;;;;;;;4.53;3.70;;;;;;;;;;5056258;28;20020;-75
2021/06/04 06:59:41;;;;;;;5.83;3.47;;;;;;;;;;5061964;28;20464;-76
2021/06/04 07:02:09;;;;;;;5.00;3.53;;;;;;;;;;5049169;28;20374;-74
2021/06/04 07:04:34;;;;;;;5.20;3.50;;;;;;;;;;5055606;28;20384;-75
2021/06/04 07:07:00;;;;;;;5.38;3.85;;;;;;;;;;5048849;28;20061;-74
2021/06/04 07:09:26;;;;;;;4.25;3.22;;;;;;;;;;5061480;28;20020;-75
2021/06/04 07:11:54;;;;;;;6.35;3.60;;;;;;;;;;5056375;28;20074;-75
2021/06/04 07:14:21;;;;;;;5.28;3.47;;;;;;;;;;5071682;28;20032;-75
2021/06/04 07:16:46;;;;;;;4.35;3.15;;;;;;;;;;5072228;28;20028;-74
2021/06/04 07:19:12;;;;;;;5.03;3.17;;;;;;;;;;5061196;28;20017;-74
2021/06/04 07:21:37;;;;;;;3.65;2.88;;;;;;;;;;5064425;28;20036;-74
2021/06/04 07:24:03;;;;;;;4.93;3.60;;;;;;;;;;5064133;28;20450;-74
2021/06/04 07:26:29;;;;;;;5.85;3.13;;;;;;;;;;5053158;28;20036;-75
2021/06/04 07:29:00;;;;;;;8.48;3.75;;;;;;;;;;5069819;28;20017;-75
2021/06/04 07:31:25;;;;;;;6.90;3.88;;;;;;;;;;5036891;28;20040;-74
2021/06/04 07:33:51;;;;;;;7.30;3.93;;;;;;;;;;5069611;28;20045;-76
2021/06/04 07:36:22;;;;;;;4.80;3.78;;;;;;;;;;5060353;28;20374;-74
2021/06/04 07:38:47;;;;;;;6.47;4.25;;;;;;;;;;5069892;28;20104;-74
2021/06/04 07:41:13;;;;;;;6.65;4.00;;;;;;;;;;5055654;28;20120;-74
2021/06/04 07:43:39;;;;;;;10.00;4.13;;;;;;;;;;5060524;28;20547;-74
2021/06/04 07:46:07;;;;;;;7.85;3.78;;;;;;;;;;5054826;28;20024;-74
2021/06/04 07:48:32;;;;;;;7.38;3.78;;;;;;;;;;5055580;28;20032;-74
2021/06/04 07:50:57;;;;;;;6.07;4.18;;;;;;;;;;5069202;28;20016;-73
2021/06/04 07:53:25;;;;;;;6.65;3.72;;;;;;;;;;5052663;28;20025;-74
2021/06/04 07:55:51;;;;;;;6.68;3.90;;;;;;;;;;5052193;28;20028;-75
2021/06/04 07:58:16;;;;;;;4.97;3.63;;;;;;;;;;5053766;28;20017;-74
2021/06/04 08:00:41;;;;;;;5.97;4.25;;;;;;;;;;5071292;28;20032;-73
2021/06/04 08:03:08;;;;;;;4.15;3.35;;;;;;;;;;5054076;28;20028;-75
2021/06/04 08:05:33;;;;;;;6.07;3.67;;;;;;;;;;5052562;28;20025;-74
2021/06/04 08:07:59;;;;;;;7.13;4.00;;;;;;;;;;5069995;28;20024;-74
2021/06/04 08:10:24;;;;;;;5.10;4.10;;;;;;;;;;5063509;28;20055;-74
2021/06/04 08:12:50;;;;;;;6.30;4.10;;;;;;;;;;5063925;28;20099;-74
2021/06/04 08:15:17;;;;;;;6.43;3.90;;;;;;;;;;5057586;28;20097;-74
2021/06/04 08:17:45;;;;;;;8.23;4.15;;;;;;;;;;5063718;28;20108;-75
2021/06/04 08:20:11;;;;;;;6.88;4.22;;;;;;;;;;5063295;28;20099;-74
2021/06/04 08:22:42;;;;;;;9.05;3.97;;;;;;;;;;5071079;28;20628;-74
2021/06/04 08:25:08;;;;;;;6.57;4.07;;;;;;;;;;5058995;28;20146;-73
2021/06/04 08:27:33;;;;;;;5.55;3.75;;;;;;;;;;5052098;28;20070;-74
2021/06/04 08:29:58;;;;;;;5.17;3.67;;;;;;;;;;5058305;28;20021;-75
2021/06/04 08:32:23;;;;;;;5.83;4.03;;;;;;;;;;5051736;28;20623;-74
2021/06/04 08:34:49;;;;;;;6.37;4.13;;;;;;;;;;5051964;28;20330;-75
2021/06/04 08:37:14;;;;;;;5.47;3.58;;;;;;;;;;5056159;28;20286;-74
2021/06/04 08:39:43;;;;;;;7.15;4.43;;;;;;;;;;5066820;28;20158;-74
2021/06/04 08:42:14;;;;;;;5.60;3.70;;;;;;;;;;5055606;28;20030;-74
2021/06/04 08:44:54;;;;;;;7.97;4.38;;;;;;;;;;5071066;28;20025;-74
2021/06/04 08:47:19;;;;;;;;;;;;;;;;;;5071356;28;20024;-75
2021/06/04 08:50:00;;;;;;;5.50;4.40;;;;;;;;;;5070916;28;19981;-74
2021/06/04 08:52:39;;;;;;;5.75;4.55;;;;;;;;;;5046148;28;20283;-74
2021/06/04 08:55:23;;;;;;;6.82;4.35;;;;;;;;;;5054321;28;20516;-73
2021/06/04 08:57:53;;;;;;;6.43;4.53;;;;;;;;;;5051022;28;20083;-73
2021/06/04 09:00:29;;;;;;;6.65;4.22;;;;;;;;;;5068877;28;20032;-73
2021/06/04 09:02:59;;;;;;;6.65;4.95;;;;;;;;;;5069974;28;20533;-74
2021/06/04 09:05:31;;;;;;;4.47;3.92;;;;;;;;;;5070230;28;20024;-73
2021/06/04 09:07:56;;;;;;;5.72;4.30;;;;;;;;;;5064301;28;20025;-73
2021/06/04 09:10:28;;;;;;;7.13;4.28;;;;;;;;;;5056772;28;20565;-74
2021/06/04 09:12:55;;;;;;;6.82;4.93;;;;;;;;;;5070199;28;20597;-74
2021/06/04 09:15:24;;;;;;;6.82;4.65;;;;;;;;;;5069645;28;20130;-74
2021/06/04 09:18:07;;;;;;;6.38;4.72;;;;;;;;;;5044369;28;20476;-74
2021/06/04 09:20:55;;;;;;;5.03;4.35;;;;;;;;;;5065203;28;20354;-74
2021/06/04 09:23:23;;;;;;;6.53;3.85;;;;;;;;;;5065774;28;20273;-73
2021/06/04 09:25:49;;;;;;;6.80;4.50;;;;;;;;;;5055139;28;20008;-73
2021/06/04 09:28:17;;;;;;;6.63;4.23;;;;;;;;;;5065908;28;20029;-73
2021/06/04 09:30:44;;;;;;;8.55;4.35;;;;;;;;;;5050946;28;20305;-73
2021/06/04 09:33:18;;;;;;;7.35;4.60;;;;;;;;;;5050132;28;20127;-74
2021/06/04 09:36:02;;;;;;;6.53;4.22;;;;;;;;;;5050689;28;20017;-73
2021/06/04 09:38:39;;;;;;;5.05;3.97;;;;;;;;;;5063674;28;20035;-73
2021/06/04 09:41:23;;;;;;;5.82;4.20;;;;;;;;;;5055168;28;20025;-74
2021/06/04 09:43:49;;;;;;;8.27;4.68;;;;;;;;;;5050976;28;20017;-74
2021/06/04 09:46:23;;;;;;;9.32;4.82;;;;;;;;;;5049726;28;20373;-74
2021/06/04 09:48:56;;;;;;;8.52;4.90;;;;;;;;;;5055442;28;20031;-74
2021/06/04 09:51:22;;;;;;;6.00;4.63;;;;;;;;;;5064784;28;20017;-75
2021/06/04 09:53:47;;;;;;;5.70;4.10;;;;;;;;;;5060097;28;20051;-74
2021/06/04 09:56:32;;;;;;;7.13;4.00;;;;;;;;;;5052413;28;20044;-74
2021/06/04 09:58:59;;;;;;;4.55;3.60;;;;;;;;;;5049404;28;20632;-74
2021/06/04 10:01:27;;;;;;;5.35;3.63;;;;;;;;;;5062698;28;20024;-74
2021/06/04 10:03:57;;;;;;;7.65;4.15;;;;;;;;;;5056922;28;20029;-75
2021/06/04 10:06:34;;;;;;;4.32;3.38;;;;;;;;;;5043625;28;20056;-74
2021/06/04 10:09:02;;;;;;;6.43;4.07;;;;;;;;;;5043903;28;20621;-73
2021/06/04 10:11:39;;;;;;;5.45;3.72;;;;;;;;;;5050182;28;20472;-74
2021/06/04 10:19:19;;;;;;;6.50;3.70;;;;;;;;;;5080088;28;20790;-73
2021/06/04 10:21:45;;;;;;;5.35;3.63;;;;;;;;;;5049935;28;20091;-74
2021/06/04 10:24:30;;;;;;;4.55;3.35;;;;;;;;;;5053756;28;20020;-75
2021/06/04 10:26:58;;;;;;;4.45;3.40;;;;;;;;;;5036349;28;20427;-74
2021/06/04 10:29:23;;;;;;;6.13;3.78;;;;;;;;;;5062325;28;20459;-74
2021/06/04 10:31:53;;;;;;;4.50;2.90;;;;;;;;;;5069051;28;20069;-74
2021/06/04 10:34:37;;;;;;;5.57;3.55;;;;;;;;;;5055421;28;20809;-75
2021/06/04 10:37:04;;;;;;;5.22;3.17;;;;;;;;;;5049135;28;20039;-74
2021/06/04 10:39:38;;;;;;;4.75;3.55;;;;;;;;;;5050933;28;20050;-74
2021/06/04 10:42:09;;;;;;;4.00;3.30;;;;;;;;;;5062528;28;20056;-74
2021/06/04 10:45:06;;;;;;;9.85;3.30;;;;;;;;;;5068959;28;20032;-73
2021/06/04 10:47:44;;;;;;;3.42;3.10;;;;;;;;;;4988727;28;20941;-74
2021/06/04 10:50:14;;;;;;;5.68;3.40;;;;;;;;;;4972710;28;20065;-75
2021/06/04 10:52:55;;;;;;;7.85;3.67;;;;;;;;;;4969484;28;20034;-74
2021/06/04 10:55:26;;;;;;;5.15;3.75;;;;;;;;;;4984770;28;20031;-73
2021/06/04 10:57:55;;;;;;;6.03;3.75;;;;;;;;;;4983005;28;20498;-75
2021/06/04 11:00:24;;;;;;;4.25;3.38;;;;;;;;;;4967775;28;20034;-74
2021/06/04 11:02:59;;;;;;;5.53;3.25;;;;;;;;;;4967941;28;20039;-74
2021/06/04 11:05:33;;;;;;;5.65;3.65;;;;;;;;;;4967766;28;20058;-76
2021/06/04 11:08:07;;;;;;;5.70;3.30;;;;;;;;;;4986219;28;20023;-74
2021/06/04 11:10:51;;;;;;;4.60;2.97;;;;;;;;;;4973633;28;20031;-75
2021/06/04 11:13:37;;;;;;;4.28;2.80;;;;;;;;;;4965688;28;20023;-73
2021/06/04 11:16:11;;;;;;;4.15;2.88;;;;;;;;;;4969279;28;20074;-74
2021/06/04 11:18:42;;;;;;;4.82;3.22;;;;;;;;;;4980661;28;20027;-73
2021/06/04 11:21:14;;;;;;;3.85;3.10;;;;;;;;;;4974185;28;20069;-75
2021/06/04 11:23:47;;;;;;;4.05;2.90;;;;;;;;;;5018559;28;20064;-74
2021/06/04 11:26:15;;;;;;;3.50;2.70;;;;;;;;;;5042551;28;20380;-74
2021/06/04 11:28:46;;;;;;;4.35;3.10;;;;;;;;;;5055752;28;20021;-74
2021/06/04 11:31:34;;;;;;;5.05;3.03;;;;;;;;;;5068259;28;20055;-74
2021/06/04 11:34:03;;;;;;;4.72;2.88;;;;;;;;;;4986307;28;20546;-75
2021/06/04 11:36:30;;;;;;;10.73;2.83;;;;;;;;;;4976735;28;20070;-74
2021/06/04 11:39:02;;;;;;;3.92;2.53;;;;;;;;;;4967660;28;20030;-74
2021/06/04 11:41:34;;;;;;;2.97;2.67;;;;;;;;;;4967996;28;20035;-75
2021/06/04 11:44:05;;;;;;;4.10;2.60;;;;;;;;;;4978340;28;20054;-74
2021/06/04 11:46:34;;;;;;;3.83;2.60;;;;;;;;;;4975489;28;20090;-74
2021/06/04 11:49:01;;;;;;;3.90;3.03;;;;;;;;;;4967500;28;20030;-74
2021/06/04 11:51:28;;;;;;;4.88;3.13;;;;;;;;;;4967698;28;20049;-75
2021/06/04 11:53:55;;;;;;;5.35;2.80;;;;;;;;;;4971603;28;20049;-74
2021/06/04 11:56:40;;;;;;;3.53;3.00;;;;;;;;;;4977848;28;20030;-75
2021/06/04 11:59:08;;;;;;;3.70;2.97;;;;;;;;;;4982124;28;20038;-75
2021/06/04 12:01:37;;;;;;;4.03;3.38;;;;;;;;;;4970957;28;20057;-75
2021/06/04 12:04:09;;;;;;;4.53;3.10;;;;;;;;;;4971126;28;20140;-74
2021/06/04 12:06:34;;;;;;;3.83;3.08;;;;;;;;;;4977731;28;20038;-74
2021/06/04 12:08:59;;;;;;;4.23;2.93;;;;;;;;;;4982945;28;20486;-74
2021/06/04 12:11:29;;;;;;;3.45;2.88;;;;;;;;;;5031540;28;20302;-75
2021/06/04 12:13:55;;;;;;;3.72;2.83;;;;;;;;;;5071328;28;20013;-74
2021/06/04 12:16:21;;;;;;;4.83;3.20;;;;;;;;;;5071515;28;20036;-73
2021/06/04 12:18:48;;;;;;;8.18;4.20;;;;;;;;;;5071805;28;20043;-74
2021/06/04 12:21:33;;;;;;;10.30;4.70;;;;;;;;;;5065279;28;20029;-71
2021/06/04 12:23:58;;;;;;;5.75;4.05;;;;;;;;;;5053183;28;20655;-73
2021/06/04 12:26:31;;;;;;;7.70;4.20;;;;;;;;;;5062592;28;20020;-72
2021/06/04 12:28:56;;;;;;;9.07;4.20;;;;;;;;;;5071125;28;20641;-73
2021/06/04 12:31:21;;;;;;;6.53;3.78;;;;;;;;;;5056209;28;20029;-73
2021/06/04 12:33:54;;;;;;;7.88;3.83;;;;;;;;;;5059301;28;20040;-72
2021/06/04 12:36:50;;;;;;;5.82;3.90;;;;;;;;;;5062462;28;20025;-73
2021/06/04 12:39:21;;;;;;;4.93;3.60;;;;;;;;;;5070085;28;20357;-71
2021/06/04 12:41:47;;;;;;;7.88;4.50;;;;;;;;;;5070954;28;20210;-74
2021/06/04 12:44:13;;;;;;;4.57;3.80;;;;;;;;;;5052229;28;20112;-73
2021/06/04 12:46:39;;;;;;;8.88;4.20;;;;;;;;;;5063068;28;20140;-73
2021/06/04 12:49:08;;;;;;;7.20;4.25;;;;;;;;;;5071096;28;20016;-73
2021/06/04 12:51:39;;;;;;;7.38;3.97;;;;;;;;;;5065459;28;20043;-73
2021/06/04 12:54:06;;;;;;;5.45;3.83;;;;;;;;;;5066776;28;20059;-76
2021/06/04 12:56:39;;;;;;;6.30;3.88;;;;;;;;;;5070601;28;20082;-75
2021/06/04 12:59:08;;;;;;;5.30;3.78;;;;;;;;;;5057618;28;20025;-73
2021/06/04 13:01:36;;;;;;;4.78;3.65;;;;;;;;;;5051199;28;20107;-74
2021/06/04 13:04:13;;;;;;;5.57;3.80;;;;;;;;;;5057652;28;20021;-74
2021/06/04 13:06:41;;;;;;;8.23;3.85;;;;;;;;;;5051431;28;20473;-74
2021/06/04 13:09:22;;;;;;;9.30;4.47;;;;;;;;;;5063153;28;20067;-73
2021/06/04 13:11:47;;;;;;;7.40;4.15;;;;;;;;;;5069706;28;20525;-74
2021/06/04 13:14:36;;;;;;;6.37;3.83;;;;;;;;;;5055108;28;20025;-73
2021/06/04 13:17:14;;;;;;;6.30;3.83;;;;;;;;;;5045752;28;20025;-75
2021/06/04 13:19:39;;;;;;;6.70;4.35;;;;;;;;;;5070060;28;20056;-75
2021/06/04 13:22:22;;;;;;;8.05;4.18;;;;;;;;;;5070057;28;20065;-74
2021/06/04 13:24:49;;;;;;;4.45;3.90;;;;;;;;;;5045504;28;20021;-75
2021/06/04 13:27:23;;;;;;;7.88;4.30;;;;;;;;;;5058323;28;20053;-71
2021/06/04 13:29:53;;;;;;;6.35;4.13;;;;;;;;;;5061491;28;20024;-70
2021/06/04 13:32:22;;;;;;;5.78;3.92;;;;;;;;;;5057203;28;20348;-71
2021/06/04 13:35:05;;;;;;;9.02;4.70;;;;;;;;;;5050278;28;20044;-71
2021/06/04 13:37:32;;;;;;;6.35;3.80;;;;;;;;;;5067408;28;20483;-71
2021/06/04 13:39:58;;;;;;;5.18;3.85;;;;;;;;;;5069340;28;20052;-70
2021/06/04 13:42:31;;;;;;;6.20;3.78;;;;;;;;;;5065597;28;20083;-74
2021/06/04 13:44:58;;;;;;;5.60;4.57;;;;;;;;;;5057406;28;20098;-73
2021/06/04 13:47:38;;;;;;;7.38;3.95;;;;;;;;;;5056776;28;20021;-73
2021/06/04 13:50:22;;;;;;;4.78;3.60;;;;;;;;;;5047890;28;20169;-72
2021/06/04 13:53:02;;;;;;;7.25;4.10;;;;;;;;;;5045627;28;20021;-73
2021/06/04 13:55:28;;;;;;;5.85;3.50;;;;;;;;;;5046646;28;20052;-74
2021/06/04 13:58:11;;;;;;;4.32;3.67;;;;;;;;;;5050520;28;20020;-74
2021/06/04 14:00:36;;;;;;;5.15;3.90;;;;;;;;;;5062482;28;20121;-74
2021/06/04 14:03:16;;;;;;;4.27;3.50;;;;;;;;;;5056730;28;20104;-74
2021/06/04 14:06:01;;;;;;;13.93;3.10;;;;;;;;;;5050213;28;21105;-74
2021/06/04 14:08:27;;;;;;;4.93;2.45;;;;;;;;;;5064111;28;20074;-73
2021/06/04 14:11:00;;;;;;;10.10;2.38;;;;;;;;;;5062697;28;20052;-74
2021/06/04 14:13:31;;;;;;;7.22;2.10;;;;;;;;;;5068699;28;20024;-74
2021/06/04 14:16:02;;;;;;;6.45;1.92;;;;;;;;;;5066907;28;20031;-74
2021/06/04 14:18:32;;;;;;;5.30;2.05;;;;;;;;;;5051972;28;20017;-74
2021/06/04 14:20:59;;;;;;;4.80;1.80;;;;;;;;;;5068916;28;20036;-74
2021/06/04 14:23:24;;;;;;;4.53;1.83;;;;;;;;;;5063269;28;20121;-73
2021/06/04 14:25:49;;;;;;;5.07;2.15;;;;;;;;;;5044953;28;20072;-74
2021/06/04 14:28:16;;;;;;;4.55;2.00;;;;;;;;;;5053836;28;20016;-74
2021/06/04 14:30:43;;;;;;;4.78;2.15;;;;;;;;;;5060318;28;20464;-75
2021/06/04 14:33:12;;;;;;;7.50;2.20;;;;;;;;;;5051012;28;20045;-74
2021/06/04 14:35:42;;;;;;;4.03;2.30;;;;;;;;;;5053656;28;20017;-74
2021/06/04 14:38:22;;;;;;;7.57;2.08;;;;;;;;;;5064281;28;20040;-75
2021/06/04 14:40:47;;;;;;;;;;;;;;;;;;5059678;28;20044;-73
2021/06/04 14:43:12;;;;;;;7.90;2.25;;;;;;;;;;5049536;28;19908;-74
2021/06/04 14:45:37;;;;;;;7.07;2.20;;;;;;;;;;5055721;28;20090;-74
2021/06/04 14:48:03;;;;;;;5.75;2.22;;;;;;;;;;5051418;28;20282;-73
2021/06/04 14:50:31;;;;;;;8.30;2.80;;;;;;;;;;5068811;28;20039;-73
2021/06/04 14:52:56;;;;;;;9.52;3.30;;;;;;;;;;5081068;28;20043;-74
2021/06/04 14:55:23;;;;;;;6.57;3.25;;;;;;;;;;5062016;28;20032;-73
2021/06/04 14:57:49;;;;;;;4.93;2.53;;;;;;;;;;5054199;28;20025;-74
2021/06/04 15:00:14;;;;;;;4.50;2.50;;;;;;;;;;5048635;28;20417;-74